Airfield :







YOU CAN JOIN US ON...

 
LOGIN :

Register | Disclaimer

   EN    FR    IT 

 









Legend :    VFR   Marginal VFR   IFR   Intensive IFR   Very Intensive IFR
Visi :
Ceiling :
>= 8 km
>= 3000ft
5 to 8 km
1000 to 3000 ft
1500m to 5 km
500 to 1000 ft
800 to 1500m
200 to 500 ft
< 800m
< 200 ft
Symbols :   Thunderstorms  Fog  Heavy snow  Heavy precipitations  Wind > 20 kt






- Airport Elevation : 16 ft
- IATA code : FDF


TFFF - Aime Cesaire

CURRENT METAR :
  • 101000Z AUTO VRB03KT 9999 FEW038 25/22 Q1014

EXPIRED METARs :
  • 100930Z AUTO VRB02KT 9999 SCT032 SCT130 25/22 Q1014
  • 100900Z AUTO VRB02KT 9999 FEW028/// SCT070/// ///TCU 24/22 Q1013
  • 100830Z AUTO 11007KT 9999 SCT024/// SCT033/// BKN092/// ///CB 24/22 Q1013
  • 100800Z AUTO 08007KT 030V140 9999 FEW013/// BKN027/// BKN044/// ///TCU 24/22 Q1013
  • 100730Z AUTO 08008KT 9999 -RA SCT027/// BKN044/// BKN086/// ///CB 25/22 Q1013

TAF TAF TFFF
Valid from the 09 at 18:00 until the 10 at 18:00 UTC


091600Z 0918/1018 10012KT 9999 SCT030
PROB30
TEMPO 0923/1004 09015G25KT 4000 SHRA BKN020TCU
PROB30
TEMPO 1015/1018 09015G25KT 4000 SHRA BKN020TCU



MET'MAP, your aeronautical weather chart ! - Copyright ORBIFLY December 2007 - Disclaimer

ORBIFLY MET'MAP TEAM :

Programming & Development : Alexandra Zaïnal
Concept & original design : Baudouin d'Aumeries
Assistance for programming : Marc-Olivier Méhu
Technical & hardware support : Manuel Goepfert

Contact : metmap@orbifly.com




SOURCES & CREDITS :

   NOAA